Time;durP1;ratioP1;P1;durP2;ratioP2;P2;SDS_P1;SDS_P2;PMS_P1;PMS_P2;Temp;Humidity;BMP_temperature;BMP_pressure;BME280_temperature;BME280_humidity;BME280_pressure;Samples;Min_cycle;Max_cycle;Signal;HPM_P1;HPM_P2
2021/10/20 00:00:40;;;;;;;3.37;3.07;;;;;;;;;;5015936;28;20899;-73
2021/10/20 00:03:06;;;;;;;5.30;3.70;;;;;;;;;;5015979;28;20468;-75
2021/10/20 00:05:32;;;;;;;3.37;3.00;;;;;;;;;;4998166;28;20432;-75
2021/10/20 00:07:58;;;;;;;4.57;4.20;;;;;;;;;;5015775;28;20428;-77
2021/10/20 00:13:28;;;;;;;5.50;3.00;;;;;;;;;;5015673;28;20491;-75
2021/10/20 00:15:54;;;;;;;6.23;3.30;;;;;;;;;;5015524;28;20409;-74
2021/10/20 00:18:20;;;;;;;4.60;3.50;;;;;;;;;;5015344;28;20523;-75
2021/10/20 00:20:46;;;;;;;4.37;3.60;;;;;;;;;;5015030;28;20547;-76
2021/10/20 00:23:13;;;;;;;3.87;3.27;;;;;;;;;;5015541;28;20413;-74
2021/10/20 00:28:42;;;;;;;4.00;3.63;;;;;;;;;;5015314;28;20779;-75
2021/10/20 00:31:09;;;;;;;5.13;3.63;;;;;;;;;;5015234;28;20409;-73
2021/10/20 00:33:35;;;;;;;7.47;3.63;;;;;;;;;;5015494;28;20465;-75
2021/10/20 00:36:01;;;;;;;3.90;3.50;;;;;;;;;;5014933;28;20425;-74
2021/10/20 00:38:26;;;;;;;3.80;3.50;;;;;;;;;;5013916;28;20476;-73
2021/10/20 00:43:56;;;;;;;4.13;3.70;;;;;;;;;;5015024;28;20508;-73
2021/10/20 00:46:26;;;;;;;4.43;3.70;;;;;;;;;;5015302;28;20443;-74
2021/10/20 00:48:52;;;;;;;5.87;4.13;;;;;;;;;;5014994;28;20421;-74
2021/10/20 00:51:18;;;;;;;7.17;3.33;;;;;;;;;;5014793;28;20475;-74
2021/10/20 00:53:44;;;;;;;5.50;3.93;;;;;;;;;;5015102;28;20416;-76
2021/10/20 00:56:10;;;;;;;4.63;3.90;;;;;;;;;;5014584;28;20421;-76
2021/10/20 00:58:37;;;;;;;3.60;2.93;;;;;;;;;;5015109;28;20532;-76
2021/10/20 01:01:03;;;;;;;4.80;3.53;;;;;;;;;;5014908;28;20417;-73
2021/10/20 01:03:29;;;;;;;3.67;3.37;;;;;;;;;;5015010;28;20432;-77
2021/10/20 01:05:55;;;;;;;6.13;3.30;;;;;;;;;;5014594;28;20497;-76
2021/10/20 01:08:21;;;;;;;4.10;3.50;;;;;;;;;;5014893;28;20425;-76
2021/10/20 01:13:50;;;;;;;4.27;3.50;;;;;;;;;;5014382;28;20404;-75
2021/10/20 01:16:16;;;;;;;3.23;2.93;;;;;;;;;;5014454;28;20421;-73
2021/10/20 01:18:42;;;;;;;3.40;3.10;;;;;;;;;;5014344;28;20432;-75
2021/10/20 01:21:14;;;;;;;4.70;3.00;;;;;;;;;;5013765;28;20487;-74
2021/10/20 01:23:40;;;;;;;5.90;3.50;;;;;;;;;;5014166;28;20421;-76
2021/10/20 01:26:06;;;;;;;4.13;2.50;;;;;;;;;;5013963;28;20963;-76
2021/10/20 01:28:32;;;;;;;3.17;2.27;;;;;;;;;;5014142;28;20459;-75
2021/10/20 01:30:58;;;;;;;3.60;2.53;;;;;;;;;;5014220;28;20472;-75
2021/10/20 01:33:24;;;;;;;3.13;2.93;;;;;;;;;;5014195;28;20424;-76
2021/10/20 01:35:50;;;;;;;3.50;2.97;;;;;;;;;;5014033;28;20448;-76
2021/10/20 01:38:16;;;;;;;4.20;2.67;;;;;;;;;;5013310;28;20472;-73
2021/10/20 01:43:47;;;;;;;7.10;3.10;;;;;;;;;;5013816;28;20471;-76
2021/10/20 01:46:14;;;;;;;3.53;3.17;;;;;;;;;;5014501;28;20504;-76
2021/10/20 01:48:40;;;;;;;3.57;3.27;;;;;;;;;;5013787;28;20411;-75
2021/10/20 01:51:06;;;;;;;3.23;2.80;;;;;;;;;;5013356;28;20421;-74
2021/10/20 01:53:32;;;;;;;3.10;2.73;;;;;;;;;;5013706;28;20409;-76
2021/10/20 01:59:01;;;;;;;4.30;3.00;;;;;;;;;;5013552;28;20447;-76
2021/10/20 02:01:27;;;;;;;3.53;2.57;;;;;;;;;;5012591;28;20523;-77
2021/10/20 02:03:53;;;;;;;6.77;2.87;;;;;;;;;;5013425;28;20483;-77
2021/10/20 02:06:20;;;;;;;3.70;3.07;;;;;;;;;;5013546;28;20433;-76
2021/10/20 02:08:47;;;;;;;3.93;3.17;;;;;;;;;;5012097;28;20436;-75
2021/10/20 02:14:16;;;;;;;3.70;3.17;;;;;;;;;;5013635;28;20480;-74
2021/10/20 02:16:42;;;;;;;3.53;3.03;;;;;;;;;;5013566;28;20547;-76
2021/10/20 02:19:08;;;;;;;5.90;3.10;;;;;;;;;;5014026;28;20845;-77
2021/10/20 02:21:34;;;;;;;3.63;2.77;;;;;;;;;;5013377;28;20924;-77
2021/10/20 02:24:00;;;;;;;3.47;2.93;;;;;;;;;;5013403;28;20416;-76
2021/10/20 02:26:26;;;;;;;3.73;3.20;;;;;;;;;;5013408;28;20412;-75
2021/10/20 02:28:52;;;;;;;3.97;2.60;;;;;;;;;;5013466;28;20421;-75
2021/10/20 02:31:18;;;;;;;3.70;3.07;;;;;;;;;;5013455;28;20511;-75
2021/10/20 02:33:44;;;;;;;2.90;2.70;;;;;;;;;;5013363;28;20429;-77
2021/10/20 02:36:10;;;;;;;3.73;2.90;;;;;;;;;;5013129;28;20507;-74
2021/10/20 02:38:36;;;;;;;4.00;2.90;;;;;;;;;;5013089;28;20567;-76
2021/10/20 02:44:06;;;;;;;3.87;3.13;;;;;;;;;;5013171;28;20455;-77
2021/10/20 02:46:33;;;;;;;4.10;3.07;;;;;;;;;;5013223;28;20408;-76
2021/10/20 02:48:59;;;;;;;3.50;3.20;;;;;;;;;;5013278;28;20508;-76
2021/10/20 02:51:29;;;;;;;4.20;3.00;;;;;;;;;;5012943;28;20538;-76
2021/10/20 02:53:55;;;;;;;3.23;2.53;;;;;;;;;;5013149;28;20475;-76
2021/10/20 02:59:25;;;;;;;3.87;2.87;;;;;;;;;;5013234;28;20998;-73
2021/10/20 03:01:51;;;;;;;3.50;3.20;;;;;;;;;;5014903;28;20420;-75
2021/10/20 03:04:17;;;;;;;3.33;3.03;;;;;;;;;;5017084;28;20514;-75
2021/10/20 03:06:42;;;;;;;3.50;3.20;;;;;;;;;;5017044;28;20512;-75
2021/10/20 03:09:08;;;;;;;3.10;2.77;;;;;;;;;;5012629;28;20412;-74
2021/10/20 03:11:34;;;;;;;3.80;3.20;;;;;;;;;;5016622;28;20769;-73
2021/10/20 03:14:00;;;;;;;6.23;3.27;;;;;;;;;;5016947;28;20420;-74
2021/10/20 03:16:26;;;;;;;3.20;2.57;;;;;;;;;;5016727;28;20413;-75
2021/10/20 03:18:52;;;;;;;3.20;2.87;;;;;;;;;;5016688;28;20425;-77
2021/10/20 03:21:19;;;;;;;2.70;2.50;;;;;;;;;;5016544;28;20463;-73
2021/10/20 03:23:45;;;;;;;3.30;2.60;;;;;;;;;;5016791;28;20428;-76
2021/10/20 03:29:15;;;;;;;3.07;2.77;;;;;;;;;;5016781;28;20459;-73
2021/10/20 03:31:41;;;;;;;3.00;2.63;;;;;;;;;;5015670;28;20515;-75
2021/10/20 03:34:06;;;;;;;2.60;2.40;;;;;;;;;;5016572;28;20412;-77
2021/10/20 03:36:32;;;;;;;2.80;2.40;;;;;;;;;;5016231;28;20855;-74
2021/10/20 03:38:58;;;;;;;8.73;2.33;;;;;;;;;;5015148;28;20452;-73
2021/10/20 03:44:28;;;;;;;2.60;2.40;;;;;;;;;;5016479;28;20411;-77
2021/10/20 03:46:54;;;;;;;2.40;2.20;;;;;;;;;;5016260;28;20432;-74
2021/10/20 03:49:20;;;;;;;4.10;2.73;;;;;;;;;;5015200;28;20462;-75
2021/10/20 03:51:46;;;;;;;4.13;3.27;;;;;;;;;;5016025;28;20420;-75
2021/10/20 03:54:12;;;;;;;3.57;2.30;;;;;;;;;;5016010;28;20892;-75
2021/10/20 03:59:43;;;;;;;2.87;2.60;;;;;;;;;;5016113;28;20431;-78
2021/10/20 04:02:09;;;;;;;2.93;2.63;;;;;;;;;;5016220;28;20425;-74
2021/10/20 04:04:35;;;;;;;3.50;3.20;;;;;;;;;;5014500;28;20416;-74
2021/10/20 04:07:01;;;;;;;3.00;2.50;;;;;;;;;;5016178;28;20520;-72
2021/10/20 04:09:27;;;;;;;4.60;2.50;;;;;;;;;;5015684;28;20456;-74
2021/10/20 04:14:57;;;;;;;2.37;2.17;;;;;;;;;;5015707;28;20464;-75
2021/10/20 04:17:23;;;;;;;2.67;2.43;;;;;;;;;;5015806;28;20549;-74
2021/10/20 04:19:49;;;;;;;3.23;2.90;;;;;;;;;;5015190;28;20479;-75
2021/10/20 04:22:15;;;;;;;3.07;2.73;;;;;;;;;;5016412;28;20799;-77
2021/10/20 04:24:41;;;;;;;3.77;2.97;;;;;;;;;;5015413;28;20416;-77
2021/10/20 04:27:07;;;;;;;4.57;2.90;;;;;;;;;;5015833;28;20987;-76
2021/10/20 04:29:33;;;;;;;3.60;2.47;;;;;;;;;;5015535;28;20433;-75
2021/10/20 04:31:59;;;;;;;3.70;3.17;;;;;;;;;;5015585;28;20417;-76
2021/10/20 04:34:25;;;;;;;3.53;2.60;;;;;;;;;;5015785;28;20830;-76
2021/10/20 04:36:51;;;;;;;3.40;3.10;;;;;;;;;;5015444;28;20496;-76
2021/10/20 04:39:17;;;;;;;4.07;2.77;;;;;;;;;;5015188;28;20467;-77
2021/10/20 04:44:46;;;;;;;6.43;4.03;;;;;;;;;;5015386;28;20571;-74
2021/10/20 04:47:12;;;;;;;5.70;3.10;;;;;;;;;;5015526;28;20942;-76
2021/10/20 04:49:38;;;;;;;5.70;3.17;;;;;;;;;;5014883;28;20425;-75
2021/10/20 04:52:05;;;;;;;3.00;2.70;;;;;;;;;;5015361;28;20471;-76
2021/10/20 04:54:31;;;;;;;4.90;3.00;;;;;;;;;;5015024;28;20455;-77
2021/10/20 05:00:00;;;;;;;2.10;1.90;;;;;;;;;;5015017;28;20416;-75
2021/10/20 05:02:26;;;;;;;2.67;2.20;;;;;;;;;;5014986;28;20425;-76
2021/10/20 05:04:52;;;;;;;3.70;2.40;;;;;;;;;;5014811;28;21031;-74
2021/10/20 05:07:18;;;;;;;2.83;2.10;;;;;;;;;;5014914;28;20431;-76
2021/10/20 05:09:45;;;;;;;2.27;2.07;;;;;;;;;;5014624;28;20511;-75
2021/10/20 05:15:14;;;;;;;2.80;2.50;;;;;;;;;;5014517;28;20427;-75
2021/10/20 05:17:41;;;;;;;7.00;2.10;;;;;;;;;;5014472;28;20472;-74
2021/10/20 05:20:08;;;;;;;3.57;2.80;;;;;;;;;;5013989;28;20486;-74
2021/10/20 05:22:35;;;;;;;3.20;2.90;;;;;;;;;;5014481;28;20425;-75
2021/10/20 05:25:01;;;;;;;4.00;2.33;;;;;;;;;;5013737;28;20808;-76
2021/10/20 05:27:27;;;;;;;2.57;2.30;;;;;;;;;;5014554;28;20472;-75
2021/10/20 05:29:53;;;;;;;2.20;2.10;;;;;;;;;;5014380;28;20412;-75
2021/10/20 05:32:19;;;;;;;3.83;3.40;;;;;;;;;;5013427;28;20936;-75
2021/10/20 05:34:45;;;;;;;3.70;2.47;;;;;;;;;;5013558;28;20496;-75
2021/10/20 05:37:10;;;;;;;2.90;2.70;;;;;;;;;;5013660;28;20578;-77
2021/10/20 05:39:36;;;;;;;3.40;2.30;;;;;;;;;;5008471;28;20413;-75
2021/10/20 05:45:06;;;;;;;6.20;2.93;;;;;;;;;;5013535;28;20412;-74
2021/10/20 05:47:32;;;;;;;4.90;3.00;;;;;;;;;;5013685;28;20773;-76
2021/10/20 05:49:58;;;;;;;5.77;2.73;;;;;;;;;;5013315;28;20424;-77
2021/10/20 05:52:24;;;;;;;2.60;2.40;;;;;;;;;;5013611;28;20927;-74
2021/10/20 05:54:50;;;;;;;4.33;2.70;;;;;;;;;;5013428;28;20413;-72
2021/10/20 06:00:20;;;;;;;3.60;2.50;;;;;;;;;;5011745;28;20527;-76
2021/10/20 06:02:46;;;;;;;3.50;3.20;;;;;;;;;;5011628;28;20481;-75
2021/10/20 06:05:12;;;;;;;2.03;1.90;;;;;;;;;;5011679;28;20412;-75
2021/10/20 06:07:38;;;;;;;3.30;2.30;;;;;;;;;;5011983;28;20500;-75
2021/10/20 06:10:05;;;;;;;5.93;2.87;;;;;;;;;;5011197;28;20958;-75
2021/10/20 06:15:34;;;;;;;4.77;3.00;;;;;;;;;;5011406;28;20412;-72
2021/10/20 06:18:01;;;;;;;2.63;2.40;;;;;;;;;;5011201;28;20852;-74
2021/10/20 06:20:28;;;;;;;3.17;2.60;;;;;;;;;;5011102;28;20456;-76
2021/10/20 06:22:53;;;;;;;3.70;3.27;;;;;;;;;;5011201;28;20508;-77
2021/10/20 06:25:20;;;;;;;3.00;2.80;;;;;;;;;;5011148;28;20850;-73
2021/10/20 06:27:45;;;;;;;2.93;2.33;;;;;;;;;;5011572;28;20904;-75
2021/10/20 06:30:12;;;;;;;3.97;2.47;;;;;;;;;;5011070;28;20409;-75
2021/10/20 06:32:42;;;;;;;3.63;3.27;;;;;;;;;;5011311;28;20436;-76
2021/10/20 06:35:10;;;;;;;4.50;2.90;;;;;;;;;;5010903;28;20899;-75
2021/10/20 06:37:36;;;;;;;4.13;2.80;;;;;;;;;;5010508;28;20563;-72
2021/10/20 06:40:02;;;;;;;4.00;3.20;;;;;;;;;;5009671;28;20520;-75
2021/10/20 06:45:31;;;;;;;3.50;2.90;;;;;;;;;;5011030;28;20430;-75
2021/10/20 06:47:57;;;;;;;4.93;2.90;;;;;;;;;;5010873;28;20409;-74
2021/10/20 06:50:23;;;;;;;3.37;2.73;;;;;;;;;;5010871;28;20761;-76
2021/10/20 06:52:50;;;;;;;3.20;3.00;;;;;;;;;;5010897;28;20409;-74
2021/10/20 06:55:16;;;;;;;3.20;2.90;;;;;;;;;;5011171;28;20509;-72
2021/10/20 07:00:45;;;;;;;3.30;3.00;;;;;;;;;;5012550;28;20970;-76
2021/10/20 07:03:11;;;;;;;2.40;2.20;;;;;;;;;;5012712;28;20416;-74
2021/10/20 07:05:37;;;;;;;3.10;2.80;;;;;;;;;;5012522;28;20858;-76
2021/10/20 07:08:03;;;;;;;4.40;3.27;;;;;;;;;;5015928;28;20433;-77
2021/10/20 07:10:29;;;;;;;3.20;2.90;;;;;;;;;;5015063;28;20455;-72
2021/10/20 07:15:58;;;;;;;5.20;3.30;;;;;;;;;;5012652;28;20533;-75
2021/10/20 07:18:26;;;;;;;5.07;2.90;;;;;;;;;;5012460;28;20484;-76
2021/10/20 07:20:52;;;;;;;4.20;3.40;;;;;;;;;;5012102;28;20522;-76
2021/10/20 07:23:18;;;;;;;5.27;3.03;;;;;;;;;;5012576;28;20424;-76
2021/10/20 07:25:44;;;;;;;4.20;2.93;;;;;;;;;;5012527;28;20412;-76
2021/10/20 07:28:11;;;;;;;4.50;2.87;;;;;;;;;;5012230;28;20443;-74
2021/10/20 07:30:37;;;;;;;5.93;3.03;;;;;;;;;;5012416;28;20443;-77
2021/10/20 07:33:04;;;;;;;6.20;3.77;;;;;;;;;;5012543;28;20435;-74
2021/10/20 07:35:30;;;;;;;4.20;3.53;;;;;;;;;;5012435;28;20440;-75
2021/10/20 07:37:56;;;;;;;4.40;3.20;;;;;;;;;;5012854;28;20515;-77
2021/10/20 07:40:22;;;;;;;5.23;3.10;;;;;;;;;;5012906;28;20417;-75
2021/10/20 07:45:51;;;;;;;6.80;4.20;;;;;;;;;;5012586;28;20459;-76
2021/10/20 07:48:17;;;;;;;4.00;3.70;;;;;;;;;;5015008;28;20417;-76
2021/10/20 07:50:43;;;;;;;4.20;3.80;;;;;;;;;;5015923;28;20926;-75
2021/10/20 07:53:10;;;;;;;5.17;3.73;;;;;;;;;;5015824;28;20443;-75
2021/10/20 07:55:36;;;;;;;3.37;2.70;;;;;;;;;;5015898;28;20417;-76
2021/10/20 08:01:05;;;;;;;5.23;2.60;;;;;;;;;;5015973;28;20428;-76
2021/10/20 08:03:31;;;;;;;2.53;2.33;;;;;;;;;;5014035;28;20737;-74
2021/10/20 08:05:57;;;;;;;3.70;3.40;;;;;;;;;;5014066;28;20429;-76
2021/10/20 08:08:23;;;;;;;3.23;2.93;;;;;;;;;;5014307;28;20415;-76
2021/10/20 08:10:49;;;;;;;3.77;2.77;;;;;;;;;;5014370;28;20413;-77
2021/10/20 08:16:19;;;;;;;4.47;3.53;;;;;;;;;;5014139;28;20508;-68
2021/10/20 08:18:45;;;;;;;3.53;3.23;;;;;;;;;;5013862;28;20567;-70
2021/10/20 08:21:11;;;;;;;4.23;2.80;;;;;;;;;;5013655;28;20484;-71
2021/10/20 08:23:37;;;;;;;2.53;2.33;;;;;;;;;;5014221;28;20463;-71
2021/10/20 08:26:03;;;;;;;3.73;2.50;;;;;;;;;;5013890;28;20545;-71
2021/10/20 08:28:29;;;;;;;4.10;2.37;;;;;;;;;;5013865;28;20479;-71
2021/10/20 08:30:55;;;;;;;3.57;3.20;;;;;;;;;;5014132;28;20751;-72
2021/10/20 08:33:21;;;;;;;2.43;2.23;;;;;;;;;;5014205;28;20424;-69
2021/10/20 08:35:47;;;;;;;2.30;2.10;;;;;;;;;;5013623;28;20424;-70
2021/10/20 08:38:13;;;;;;;3.07;2.50;;;;;;;;;;5013391;28;20562;-78
2021/10/20 08:40:47;;;;;;;4.80;3.17;;;;;;;;;;5013858;28;20412;-74
2021/10/20 08:46:21;;;;;;;3.00;2.63;;;;;;;;;;5013543;28;20889;-78
2021/10/20 08:48:47;;;;;;;2.67;2.47;;;;;;;;;;5013457;28;20475;-77
2021/10/20 08:51:14;;;;;;;2.97;2.67;;;;;;;;;;5012394;28;20777;-77
2021/10/20 08:53:40;;;;;;;2.90;2.17;;;;;;;;;;5012944;28;20401;-77
2021/10/20 08:56:06;;;;;;;2.83;2.60;;;;;;;;;;5012902;28;20416;-76
2021/10/20 09:01:35;;;;;;;2.90;2.43;;;;;;;;;;5012815;28;20424;-77
2021/10/20 09:04:07;;;;;;;1.93;1.83;;;;;;;;;;5013133;28;20405;-76
2021/10/20 09:06:34;;;;;;;2.53;2.33;;;;;;;;;;5012322;28;20451;-77
2021/10/20 09:09:04;;;;;;;5.83;2.40;;;;;;;;;;5012409;28;20466;-77
2021/10/20 09:11:33;;;;;;;3.30;3.00;;;;;;;;;;5012387;28;20413;-77
2021/10/20 09:13:59;;;;;;;2.50;2.30;;;;;;;;;;5012574;28;20431;-77
2021/10/20 09:16:25;;;;;;;5.10;2.43;;;;;;;;;;5012595;28;20409;-76
2021/10/20 09:18:51;;;;;;;2.80;2.60;;;;;;;;;;5012400;28;20557;-75
2021/10/20 09:21:17;;;;;;;4.53;2.13;;;;;;;;;;5011915;28;20555;-76
2021/10/20 09:23:43;;;;;;;2.63;2.33;;;;;;;;;;5012318;28;20424;-73
2021/10/20 09:26:10;;;;;;;3.90;2.30;;;;;;;;;;5012294;28;20401;-77
2021/10/20 09:31:43;;;;;;;2.50;2.30;;;;;;;;;;5012357;28;20567;-76
2021/10/20 09:34:10;;;;;;;3.17;2.30;;;;;;;;;;5012547;28;20748;-77
2021/10/20 09:36:36;;;;;;;3.33;2.53;;;;;;;;;;5011893;28;20514;-75
2021/10/20 09:39:02;;;;;;;2.33;2.13;;;;;;;;;;5011959;28;20769;-78
2021/10/20 09:41:28;;;;;;;2.30;1.90;;;;;;;;;;5011835;28;20496;-79
2021/10/20 09:43:56;;;;;;;3.30;2.03;;;;;;;;;;5012114;28;20463;-79
2021/10/20 09:46:32;;;;;;;4.93;2.30;;;;;;;;;;5012344;28;20425;-80
2021/10/20 09:49:00;;;;;;;4.10;2.00;;;;;;;;;;5012158;28;20420;-77
2021/10/20 09:51:26;;;;;;;5.60;2.97;;;;;;;;;;5011647;28;20413;-74
2021/10/20 09:53:53;;;;;;;5.03;2.30;;;;;;;;;;5011646;28;20417;-76
2021/10/20 09:56:19;;;;;;;3.00;2.23;;;;;;;;;;5012281;28;20405;-77
2021/10/20 10:01:49;;;;;;;3.00;2.50;;;;;;;;;;5011184;28;20507;-76
2021/10/20 10:04:15;;;;;;;2.23;2.03;;;;;;;;;;5011769;28;20471;-76
2021/10/20 10:06:41;;;;;;;2.90;2.20;;;;;;;;;;5011577;28;20421;-77
2021/10/20 10:09:08;;;;;;;3.03;2.73;;;;;;;;;;5012247;28;20462;-78
2021/10/20 10:11:35;;;;;;;3.13;2.27;;;;;;;;;;5011810;28;20516;-73
2021/10/20 10:14:02;;;;;;;2.60;2.40;;;;;;;;;;5011904;28;20408;-76
2021/10/20 10:16:29;;;;;;;3.40;2.50;;;;;;;;;;5011762;28;20448;-78
2021/10/20 10:18:57;;;;;;;3.10;2.40;;;;;;;;;;5011926;28;20877;-76
2021/10/20 10:21:29;;;;;;;2.43;2.23;;;;;;;;;;5011567;28;20460;-77
2021/10/20 10:23:57;;;;;;;2.30;2.10;;;;;;;;;;5011401;28;20449;-76
2021/10/20 10:26:24;;;;;;;6.30;2.87;;;;;;;;;;5010723;28;20707;-77
2021/10/20 10:31:53;;;;;;;3.20;2.57;;;;;;;;;;5011955;28;20431;-77
2021/10/20 10:34:25;;;;;;;2.37;2.17;;;;;;;;;;5012045;28;20429;-77
2021/10/20 10:36:55;;;;;;;2.30;2.10;;;;;;;;;;5011776;28;20467;-78
2021/10/20 10:39:22;;;;;;;2.40;2.17;;;;;;;;;;5011838;28;20452;-78
2021/10/20 10:47:53;;;;;;;2.50;2.30;;;;;;;;;;5011754;28;20431;-77
2021/10/20 10:50:20;;;;;;;2.20;2.00;;;;;;;;;;5011583;28;20440;-73
2021/10/20 10:52:46;;;;;;;2.90;2.00;;;;;;;;;;5012271;28;20759;-77
2021/10/20 10:55:20;;;;;;;5.70;2.40;;;;;;;;;;5011423;28;20758;-78
2021/10/20 10:57:55;;;;;;;2.43;2.20;;;;;;;;;;5011917;28;20986;-76
2021/10/20 11:00:21;;;;;;;2.30;2.20;;;;;;;;;;5012151;28;20448;-78
2021/10/20 11:02:57;;;;;;;4.60;2.40;;;;;;;;;;5010696;28;20793;-77
2021/10/20 11:05:31;;;;;;;2.30;2.10;;;;;;;;;;5010096;28;20424;-76
2021/10/20 11:08:01;;;;;;;4.90;2.37;;;;;;;;;;5013354;28;20480;-77
2021/10/20 11:10:28;;;;;;;3.10;2.30;;;;;;;;;;5010606;28;20963;-74
2021/10/20 11:12:55;;;;;;;2.83;2.40;;;;;;;;;;5010774;28;20412;-78
2021/10/20 11:15:22;;;;;;;2.43;2.17;;;;;;;;;;5011551;28;20934;-76
2021/10/20 11:17:48;;;;;;;2.37;2.17;;;;;;;;;;5011147;28;20468;-76
2021/10/20 11:20:15;;;;;;;2.60;2.40;;;;;;;;;;5011013;28;20551;-76
2021/10/20 11:22:44;;;;;;;3.60;2.10;;;;;;;;;;5012771;28;20500;-76
2021/10/20 11:25:11;;;;;;;2.40;2.20;;;;;;;;;;5015437;28;20413;-75
2021/10/20 11:27:38;;;;;;;2.90;1.93;;;;;;;;;;5014973;28;20447;-75
2021/10/20 11:30:05;;;;;;;4.90;2.03;;;;;;;;;;5015208;28;20404;-74
2021/10/20 11:32:31;;;;;;;3.70;2.40;;;;;;;;;;5015291;28;20417;-74
2021/10/20 11:34:57;;;;;;;2.60;2.40;;;;;;;;;;5014505;28;20763;-76
2021/10/20 11:37:24;;;;;;;2.30;2.03;;;;;;;;;;5013435;28;20464;-71
2021/10/20 11:39:52;;;;;;;2.10;1.90;;;;;;;;;;5014579;28;20424;-77
2021/10/20 11:42:18;;;;;;;2.37;1.37;;;;;;;;;;5014661;28;20408;-76
2021/10/20 11:47:47;;;;;;;3.80;2.20;;;;;;;;;;5014371;28;20432;-75
2021/10/20 11:50:20;;;;;;;2.67;2.20;;;;;;;;;;5014297;28;20409;-76
2021/10/20 11:52:57;;;;;;;2.47;2.27;;;;;;;;;;5014287;28;20934;-76
2021/10/20 11:55:23;;;;;;;2.20;1.60;;;;;;;;;;5014279;28;20766;-77
2021/10/20 11:57:49;;;;;;;2.00;1.87;;;;;;;;;;5014527;28;20545;-78
2021/10/20 12:00:14;;;;;;;1.90;1.70;;;;;;;;;;5014411;28;20892;-78
2021/10/20 12:02:41;;;;;;;2.17;1.60;;;;;;;;;;5014491;28;20525;-76
2021/10/20 12:05:07;;;;;;;2.30;2.00;;;;;;;;;;5014244;28;20413;-76
2021/10/20 12:07:33;;;;;;;3.23;1.80;;;;;;;;;;5010638;28;20425;-78
2021/10/20 12:10:04;;;;;;;3.33;1.90;;;;;;;;;;5011112;28;20939;-76
2021/10/20 12:12:30;;;;;;;4.77;2.40;;;;;;;;;;5012532;28;20421;-77
2021/10/20 12:18:01;;;;;;;2.57;1.90;;;;;;;;;;5012518;28;20482;-75
2021/10/20 12:20:30;;;;;;;2.20;2.00;;;;;;;;;;5012154;28;20474;-75
2021/10/20 12:22:56;;;;;;;5.07;2.20;;;;;;;;;;5011154;28;20441;-77
2021/10/20 12:25:22;;;;;;;2.50;1.90;;;;;;;;;;5012222;28;20512;-76
2021/10/20 12:27:48;;;;;;;2.60;2.40;;;;;;;;;;5012490;28;20436;-76
2021/10/20 12:30:14;;;;;;;1.80;1.70;;;;;;;;;;5012347;28;20425;-75
2021/10/20 12:32:41;;;;;;;1.87;1.63;;;;;;;;;;5012132;28;20488;-76
2021/10/20 12:35:10;;;;;;;2.10;2.00;;;;;;;;;;5011978;28;20456;-75
2021/10/20 12:37:40;;;;;;;4.83;2.00;;;;;;;;;;5012137;28;20928;-76
2021/10/20 12:40:09;;;;;;;2.57;2.00;;;;;;;;;;5012513;28;20512;-75
2021/10/20 12:48:43;;;;;;;2.23;2.03;;;;;;;;;;5012093;28;20501;-76
2021/10/20 12:51:14;;;;;;;2.60;2.10;;;;;;;;;;5011883;28;20935;-75
2021/10/20 12:53:41;;;;;;;2.67;1.83;;;;;;;;;;5012963;28;20421;-75
2021/10/20 12:56:09;;;;;;;2.93;2.50;;;;;;;;;;5013165;28;20907;-77
2021/10/20 12:58:35;;;;;;;2.77;2.20;;;;;;;;;;5013314;28;20551;-77
2021/10/20 13:01:01;;;;;;;2.20;2.00;;;;;;;;;;5013585;28;20760;-77
2021/10/20 13:03:29;;;;;;;2.70;2.50;;;;;;;;;;5013099;28;20416;-76
2021/10/20 13:05:55;;;;;;;4.23;2.37;;;;;;;;;;5012724;28;20829;-76
2021/10/20 13:08:21;;;;;;;2.67;2.13;;;;;;;;;;5013455;28;20413;-77
2021/10/20 13:10:48;;;;;;;3.47;2.40;;;;;;;;;;5013160;28;20420;-75
2021/10/20 13:13:14;;;;;;;2.87;2.17;;;;;;;;;;5012838;28;20472;-78
2021/10/20 13:15:39;;;;;;;4.37;2.23;;;;;;;;;;5012946;28;20499;-75
2021/10/20 13:18:06;;;;;;;3.10;2.80;;;;;;;;;;5013260;28;20929;-76
2021/10/20 13:20:32;;;;;;;5.10;2.33;;;;;;;;;;5012777;28;20567;-75
2021/10/20 13:23:01;;;;;;;3.73;2.90;;;;;;;;;;5013067;28;20552;-77
2021/10/20 13:25:27;;;;;;;5.53;2.27;;;;;;;;;;5012535;28;20449;-76
2021/10/20 13:27:54;;;;;;;3.50;2.50;;;;;;;;;;5012866;28;20409;-76
2021/10/20 13:33:23;;;;;;;2.87;2.10;;;;;;;;;;5012275;28;20479;-76
2021/10/20 13:35:49;;;;;;;3.73;2.33;;;;;;;;;;5012277;28;20428;-76
2021/10/20 13:38:19;;;;;;;1.77;1.67;;;;;;;;;;5012260;28;20468;-77
2021/10/20 13:40:45;;;;;;;2.73;2.40;;;;;;;;;;5012845;28;20417;-76
2021/10/20 13:43:12;;;;;;;3.13;2.47;;;;;;;;;;5012291;28;20432;-77
2021/10/20 13:45:38;;;;;;;2.93;2.73;;;;;;;;;;5011922;28;20492;-75
2021/10/20 13:48:04;;;;;;;4.10;2.50;;;;;;;;;;5012172;28;20513;-77
2021/10/20 13:50:30;;;;;;;3.70;2.30;;;;;;;;;;5012122;28;20416;-76
2021/10/20 13:52:56;;;;;;;2.47;2.30;;;;;;;;;;5010946;28;20433;-77
2021/10/20 13:55:28;;;;;;;2.63;2.13;;;;;;;;;;5010910;28;20519;-76
2021/10/20 13:57:54;;;;;;;3.10;2.20;;;;;;;;;;5011903;28;20481;-74
2021/10/20 14:03:23;;;;;;;2.67;2.40;;;;;;;;;;5012055;28;20407;-77
2021/10/20 14:05:50;;;;;;;2.33;2.13;;;;;;;;;;5011738;28;20799;-77
2021/10/20 14:08:16;;;;;;;3.50;2.20;;;;;;;;;;5012182;28;20411;-75
2021/10/20 14:10:42;;;;;;;7.87;2.80;;;;;;;;;;5012417;28;20425;-75
2021/10/20 14:13:08;;;;;;;2.70;2.23;;;;;;;;;;5012202;28;20409;-76
2021/10/20 14:18:37;;;;;;;2.33;2.17;;;;;;;;;;5011922;28;21013;-76
2021/10/20 14:21:03;;;;;;;2.07;1.80;;;;;;;;;;5011813;28;20983;-75
2021/10/20 14:23:30;;;;;;;3.40;2.10;;;;;;;;;;5011906;28;20491;-75
2021/10/20 14:25:56;;;;;;;1.90;1.63;;;;;;;;;;5011941;28;20416;-73
2021/10/20 14:28:22;;;;;;;2.13;1.93;;;;;;;;;;5011904;28;20789;-75
2021/10/20 14:30:48;;;;;;;6.43;2.47;;;;;;;;;;5011707;28;20420;-76
2021/10/20 14:33:14;;;;;;;3.60;2.20;;;;;;;;;;5012165;28;20543;-77
2021/10/20 14:35:40;;;;;;;2.23;2.00;;;;;;;;;;5011608;28;20420;-77
2021/10/20 14:38:06;;;;;;;2.17;1.97;;;;;;;;;;5009945;28;20488;-76
2021/10/20 14:40:32;;;;;;;2.67;2.47;;;;;;;;;;5011531;28;20423;-75
2021/10/20 14:43:01;;;;;;;3.97;2.27;;;;;;;;;;5011736;28;20801;-78
2021/10/20 14:48:31;;;;;;;5.60;2.67;;;;;;;;;;5008043;28;20411;-76
2021/10/20 14:50:57;;;;;;;3.00;2.27;;;;;;;;;;5009830;28;20417;-76
2021/10/20 14:53:23;;;;;;;3.93;3.53;;;;;;;;;;5009800;28;20496;-78
2021/10/20 14:55:49;;;;;;;2.80;2.27;;;;;;;;;;5009558;28;20457;-76
2021/10/20 14:58:15;;;;;;;2.30;2.10;;;;;;;;;;5009199;28;20480;-77
2021/10/20 15:03:44;;;;;;;2.00;1.80;;;;;;;;;;5009681;28;20408;-77
2021/10/20 15:06:12;;;;;;;4.10;2.30;;;;;;;;;;5009387;28;20516;-77
2021/10/20 15:08:41;;;;;;;3.37;2.30;;;;;;;;;;5009576;28;20405;-77
2021/10/20 15:11:07;;;;;;;2.90;2.60;;;;;;;;;;5009763;28;20449;-76
2021/10/20 15:13:33;;;;;;;7.17;2.17;;;;;;;;;;5009898;28;20420;-75
2021/10/20 15:15:59;;;;;;;2.70;2.50;;;;;;;;;;5009610;28;20409;-75
2021/10/20 15:18:32;;;;;;;3.73;2.57;;;;;;;;;;5009685;28;20476;-75
2021/10/20 15:23:27;;;;;;;2.87;2.33;;;;;;;;;;5009072;28;20409;-76
2021/10/20 15:25:53;;;;;;;2.07;1.87;;;;;;;;;;5009304;28;20447;-76
2021/10/20 15:28:19;;;;;;;4.37;2.20;;;;;;;;;;5009475;28;20429;-77
2021/10/20 15:33:49;;;;;;;3.63;2.47;;;;;;;;;;5009310;28;20415;-76
2021/10/20 15:36:15;;;;;;;3.97;3.03;;;;;;;;;;5011105;28;20512;-78
2021/10/20 15:38:42;;;;;;;3.07;2.50;;;;;;;;;;5014811;28;20476;-76
2021/10/20 15:41:08;;;;;;;3.60;3.30;;;;;;;;;;5016652;28;20424;-75
2021/10/20 15:43:38;;;;;;;2.43;2.20;;;;;;;;;;5010338;28;20421;-75
2021/10/20 15:46:04;;;;;;;2.43;2.23;;;;;;;;;;5010121;28;20412;-76
2021/10/20 15:48:31;;;;;;;2.80;2.30;;;;;;;;;;5009181;28;20417;-76
2021/10/20 15:50:57;;;;;;;3.50;2.33;;;;;;;;;;5009084;28;20477;-73
2021/10/20 15:53:24;;;;;;;2.70;2.37;;;;;;;;;;5009312;28;20892;-75
2021/10/20 15:55:50;;;;;;;4.40;2.77;;;;;;;;;;5008417;28;20425;-77
2021/10/20 15:58:17;;;;;;;4.73;2.60;;;;;;;;;;5009344;28;20809;-76
2021/10/20 16:03:47;;;;;;;4.10;2.43;;;;;;;;;;5010634;28;20472;-77
2021/10/20 16:06:13;;;;;;;2.60;2.43;;;;;;;;;;5010997;28;20512;-76
2021/10/20 16:08:39;;;;;;;3.67;3.13;;;;;;;;;;5011974;28;20464;-77
2021/10/20 16:11:05;;;;;;;5.60;3.50;;;;;;;;;;5014587;28;20511;-77
2021/10/20 16:13:32;;;;;;;6.70;2.50;;;;;;;;;;5014044;28;20955;-77
2021/10/20 16:19:02;;;;;;;2.70;2.50;;;;;;;;;;5013798;28;20510;-77
2021/10/20 16:21:28;;;;;;;3.33;2.40;;;;;;;;;;5014056;28;20468;-78
2021/10/20 16:23:55;;;;;;;3.03;2.63;;;;;;;;;;5012679;28;20496;-76
2021/10/20 16:26:21;;;;;;;4.57;2.57;;;;;;;;;;5014188;28;20413;-78
2021/10/20 16:28:47;;;;;;;2.97;2.70;;;;;;;;;;5014031;28;20427;-74
2021/10/20 16:31:14;;;;;;;4.83;2.80;;;;;;;;;;5014174;28;20419;-77
2021/10/20 16:33:40;;;;;;;3.00;2.67;;;;;;;;;;5013977;28;20421;-76
2021/10/20 16:36:06;;;;;;;4.20;2.50;;;;;;;;;;5013947;28;20543;-76
2021/10/20 16:38:32;;;;;;;6.77;3.40;;;;;;;;;;5008121;28;20476;-72
2021/10/20 16:40:58;;;;;;;2.90;2.70;;;;;;;;;;5013322;28;20413;-72
2021/10/20 16:43:24;;;;;;;4.33;2.80;;;;;;;;;;5012403;28;20444;-72
2021/10/20 16:48:54;;;;;;;3.13;2.83;;;;;;;;;;5013623;28;20432;-71
2021/10/20 16:51:20;;;;;;;3.63;2.63;;;;;;;;;;5013271;28;20432;-71
2021/10/20 16:53:46;;;;;;;3.97;3.10;;;;;;;;;;5013013;28;20464;-72
2021/10/20 16:56:13;;;;;;;3.40;3.20;;;;;;;;;;5012511;28;20791;-72
2021/10/20 16:58:41;;;;;;;9.43;3.13;;;;;;;;;;5012993;28;20472;-72